aviador You're here:

OIAW Decoded Metar

AHWAZ in IRAN
Report Time2017-04-24 12:58:00
UTC Time2017-04-24 13:15:57
Flight Rules ifr IFR
Wind050° at 04 kt
W.Decomp.*RWY 12: 1.2 kt HW 3.8 kt LCW
W.Rank050° ranks 33
Current wind is below 050° avg. (4.3)
Visibility4500 m
Phenomena:Widespread Dust
Clouds:Few 035 Hf
Scattered 040 Hf
Broken 100 Hf
Expected CloudBase > 14,800 ft AGL from Temp-Dew spread
Ceiling10,000 ft
Temp38°C (ISA +23)
Dew Point01°C (10% RH)
Heat Index35.1°C
AAT34.7°C
QNH1004 hPa
Density Alt3,081 ft
Elevation72 ft
Report Wrong Elevation
Raw Report
OIAW 241258Z 05004KT 4500 DU FEW035 SCT040 BKN100 38/01 Q1004=

Extra information for OIAW:More info

Metar Taf Metar & Taf Last 4 Metars F.Rules Stats Wind Profile Meteogram Temp Stats Airport Information Weather charts Add Link Nearby VenuesMetar ALERT Operation Metar Decoded Social comments